sensor_id;sensor_type;location;lat;lon;timestamp;pressure;altitude;pressure_sealevel;temperature;humidity
24558;BME280;12726;49.148;8.582;2023-02-19T00:02:41;100972.22;;;9.31;95.29
24558;BME280;12726;49.148;8.582;2023-02-19T00:05:28;100986.13;;;9.34;95.02
24558;BME280;12726;49.148;8.582;2023-02-19T00:08:13;100991.44;;;9.28;95.03
24558;BME280;12726;49.148;8.582;2023-02-19T00:11:00;101005.97;;;9.33;94.84
24558;BME280;12726;49.148;8.582;2023-02-19T00:13:48;100992.91;;;9.30;94.73
24558;BME280;12726;49.148;8.582;2023-02-19T00:16:35;100997.25;;;9.31;94.68
24558;BME280;12726;49.148;8.582;2023-02-19T00:19:20;100987.78;;;9.35;94.09
24558;BME280;12726;49.148;8.582;2023-02-19T00:22:06;100975.00;;;9.37;93.90
24558;BME280;12726;49.148;8.582;2023-02-19T00:24:51;100950.38;;;9.34;94.04
24558;BME280;12726;49.148;8.582;2023-02-19T00:27:36;100961.56;;;9.37;93.76
24558;BME280;12726;49.148;8.582;2023-02-19T00:30:23;100971.69;;;9.35;93.47
24558;BME280;12726;49.148;8.582;2023-02-19T00:33:08;100961.88;;;9.28;93.80
24558;BME280;12726;49.148;8.582;2023-02-19T00:35:54;100960.75;;;9.37;93.71
24558;BME280;12726;49.148;8.582;2023-02-19T00:38:43;100969.81;;;9.36;94.03
24558;BME280;12726;49.148;8.582;2023-02-19T00:41:29;100956.38;;;9.36;94.24
24558;BME280;12726;49.148;8.582;2023-02-19T00:44:18;100956.81;;;9.39;94.20
24558;BME280;12726;49.148;8.582;2023-02-19T00:47:04;100949.94;;;9.30;94.75
24558;BME280;12726;49.148;8.582;2023-02-19T00:49:50;100940.19;;;9.29;95.15
24558;BME280;12726;49.148;8.582;2023-02-19T00:52:35;100970.38;;;9.31;95.61
24558;BME280;12726;49.148;8.582;2023-02-19T00:55:20;100983.81;;;9.31;95.70
24558;BME280;12726;49.148;8.582;2023-02-19T00:58:06;100969.09;;;9.27;95.94
24558;BME280;12726;49.148;8.582;2023-02-19T01:00:51;100974.00;;;9.24;96.04
24558;BME280;12726;49.148;8.582;2023-02-19T01:03:38;100978.38;;;9.25;96.45
24558;BME280;12726;49.148;8.582;2023-02-19T01:06:24;100968.84;;;9.22;95.97
24558;BME280;12726;49.148;8.582;2023-02-19T01:09:09;100957.78;;;9.32;95.70
24558;BME280;12726;49.148;8.582;2023-02-19T01:11:54;100954.91;;;9.33;96.10
24558;BME280;12726;49.148;8.582;2023-02-19T01:14:40;100947.69;;;9.34;95.54
24558;BME280;12726;49.148;8.582;2023-02-19T01:17:25;100943.06;;;9.28;95.66
24558;BME280;12726;49.148;8.582;2023-02-19T01:20:12;100962.91;;;9.27;95.48
24558;BME280;12726;49.148;8.582;2023-02-19T01:22:57;100966.41;;;9.27;95.64
24558;BME280;12726;49.148;8.582;2023-02-19T01:25:43;100964.09;;;9.24;95.63
24558;BME280;12726;49.148;8.582;2023-02-19T01:28:28;100969.28;;;9.26;95.59
24558;BME280;12726;49.148;8.582;2023-02-19T01:31:16;100965.59;;;9.27;95.97
24558;BME280;12726;49.148;8.582;2023-02-19T01:34:02;100957.34;;;9.28;95.59
24558;BME280;12726;49.148;8.582;2023-02-19T01:36:53;100960.84;;;9.29;95.85
24558;BME280;12726;49.148;8.582;2023-02-19T01:39:39;100972.56;;;9.21;95.97
24558;BME280;12726;49.148;8.582;2023-02-19T01:42:24;100973.56;;;9.20;96.05
24558;BME280;12726;49.148;8.582;2023-02-19T01:45:18;100974.41;;;9.21;96.23
24558;BME280;12726;49.148;8.582;2023-02-19T01:48:08;100955.84;;;9.26;95.96
24558;BME280;12726;49.148;8.582;2023-02-19T01:50:57;100959.97;;;9.22;96.27
24558;BME280;12726;49.148;8.582;2023-02-19T01:53:51;100951.72;;;9.23;96.20
24558;BME280;12726;49.148;8.582;2023-02-19T01:56:40;100932.50;;;9.26;96.23
24558;BME280;12726;49.148;8.582;2023-02-19T01:59:26;100918.63;;;9.23;96.38
24558;BME280;12726;49.148;8.582;2023-02-19T02:02:11;100926.06;;;9.21;96.42
24558;BME280;12726;49.148;8.582;2023-02-19T02:04:58;100924.31;;;9.13;96.58
24558;BME280;12726;49.148;8.582;2023-02-19T02:07:44;100937.09;;;9.11;96.72
24558;BME280;12726;49.148;8.582;2023-02-19T02:10:48;100939.97;;;9.10;97.07
24558;BME280;12726;49.148;8.582;2023-02-19T02:13:35;100945.72;;;9.07;96.92
24558;BME280;12726;49.148;8.582;2023-02-19T02:16:24;100937.50;;;9.08;97.08
24558;BME280;12726;49.148;8.582;2023-02-19T02:19:29;100925.50;;;9.11;96.94
24558;BME280;12726;49.148;8.582;2023-02-19T02:22:15;100932.75;;;9.10;96.82
24558;BME280;12726;49.148;8.582;2023-02-19T02:25:31;100928.41;;;9.09;96.72
24558;BME280;12726;49.148;8.582;2023-02-19T02:28:32;100924.91;;;9.09;96.29
24558;BME280;12726;49.148;8.582;2023-02-19T02:31:26;100913.94;;;9.10;96.40
24558;BME280;12726;49.148;8.582;2023-02-19T02:34:17;100913.09;;;9.10;96.19
24558;BME280;12726;49.148;8.582;2023-02-19T02:37:05;100931.53;;;9.13;96.20
24558;BME280;12726;49.148;8.582;2023-02-19T02:39:52;100919.97;;;9.12;95.97
24558;BME280;12726;49.148;8.582;2023-02-19T02:42:39;100927.28;;;9.03;96.13
24558;BME280;12726;49.148;8.582;2023-02-19T02:45:27;100921.56;;;9.07;96.27
24558;BME280;12726;49.148;8.582;2023-02-19T02:48:26;100912.47;;;9.08;96.15
24558;BME280;12726;49.148;8.582;2023-02-19T02:51:15;100912.66;;;9.06;96.11
24558;BME280;12726;49.148;8.582;2023-02-19T02:54:06;100921.50;;;9.00;96.86
24558;BME280;12726;49.148;8.582;2023-02-19T02:57:10;100928.25;;;8.96;96.56
24558;BME280;12726;49.148;8.582;2023-02-19T02:59:57;100921.50;;;9.00;96.93
24558;BME280;12726;49.148;8.582;2023-02-19T03:02:43;100915.72;;;9.03;96.84
24558;BME280;12726;49.148;8.582;2023-02-19T03:05:28;100912.72;;;8.91;97.09
24558;BME280;12726;49.148;8.582;2023-02-19T03:08:36;100912.13;;;8.96;96.95
24558;BME280;12726;49.148;8.582;2023-02-19T03:11:22;100912.13;;;8.96;97.03
24558;BME280;12726;49.148;8.582;2023-02-19T03:14:30;100922.50;;;8.99;97.00
24558;BME280;12726;49.148;8.582;2023-02-19T03:17:38;100915.66;;;8.96;97.05
24558;BME280;12726;49.148;8.582;2023-02-19T03:20:47;100917.91;;;8.93;97.44
24558;BME280;12726;49.148;8.582;2023-02-19T03:23:36;100909.84;;;8.93;97.40
24558;BME280;12726;49.148;8.582;2023-02-19T03:26:40;100918.09;;;8.91;97.73
24558;BME280;12726;49.148;8.582;2023-02-19T03:29:29;100914.44;;;8.99;97.05
24558;BME280;12726;49.148;8.582;2023-02-19T03:32:17;100925.38;;;8.97;97.10
24558;BME280;12726;49.148;8.582;2023-02-19T03:35:08;100925.84;;;9.01;97.42
24558;BME280;12726;49.148;8.582;2023-02-19T03:38:01;100938.63;;;8.99;97.28
24558;BME280;12726;49.148;8.582;2023-02-19T03:40:54;100934.91;;;9.00;97.41
24558;BME280;12726;49.148;8.582;2023-02-19T03:43:47;100936.13;;;8.97;97.82
24558;BME280;12726;49.148;8.582;2023-02-19T03:46:42;100935.28;;;8.97;97.83
24558;BME280;12726;49.148;8.582;2023-02-19T03:49:35;100936.78;;;8.99;98.38
24558;BME280;12726;49.148;8.582;2023-02-19T03:52:36;100948.53;;;8.98;99.07
24558;BME280;12726;49.148;8.582;2023-02-19T03:55:30;100930.50;;;8.92;100.00
24558;BME280;12726;49.148;8.582;2023-02-19T03:58:23;100942.34;;;8.83;100.00
24558;BME280;12726;49.148;8.582;2023-02-19T04:01:15;100942.53;;;8.82;100.00
24558;BME280;12726;49.148;8.582;2023-02-19T04:04:08;100934.59;;;8.74;100.00
24558;BME280;12726;49.148;8.582;2023-02-19T04:06:56;100907.28;;;8.70;100.00
24558;BME280;12726;49.148;8.582;2023-02-19T04:09:44;100930.19;;;8.66;100.00
24558;BME280;12726;49.148;8.582;2023-02-19T04:12:32;100942.84;;;8.57;100.00
24558;BME280;12726;49.148;8.582;2023-02-19T04:15:21;100941.38;;;8.55;100.00
24558;BME280;12726;49.148;8.582;2023-02-19T04:18:12;100940.94;;;8.51;100.00
24558;BME280;12726;49.148;8.582;2023-02-19T04:20:59;100953.88;;;8.48;100.00
24558;BME280;12726;49.148;8.582;2023-02-19T04:23:47;100961.38;;;8.52;100.00
24558;BME280;12726;49.148;8.582;2023-02-19T04:26:34;100962.00;;;8.54;100.00
24558;BME280;12726;49.148;8.582;2023-02-19T04:29:21;100958.69;;;8.52;100.00
24558;BME280;12726;49.148;8.582;2023-02-19T04:32:12;100950.34;;;8.47;100.00
24558;BME280;12726;49.148;8.582;2023-02-19T04:34:58;100942.94;;;8.49;100.00
24558;BME280;12726;49.148;8.582;2023-02-19T04:37:43;100953.41;;;8.44;100.00
24558;BME280;12726;49.148;8.582;2023-02-19T04:40:29;100960.25;;;8.47;100.00
24558;BME280;12726;49.148;8.582;2023-02-19T04:43:14;100953.22;;;8.46;100.00
24558;BME280;12726;49.148;8.582;2023-02-19T04:46:01;100960.34;;;8.39;100.00
24558;BME280;12726;49.148;8.582;2023-02-19T04:48:46;100970.13;;;8.32;100.00
24558;BME280;12726;49.148;8.582;2023-02-19T04:51:32;100962.75;;;8.34;100.00
24558;BME280;12726;49.148;8.582;2023-02-19T04:54:17;100969.34;;;8.31;100.00
24558;BME280;12726;49.148;8.582;2023-02-19T04:57:03;100968.63;;;8.29;100.00
24558;BME280;12726;49.148;8.582;2023-02-19T04:59:48;100958.75;;;8.30;100.00
24558;BME280;12726;49.148;8.582;2023-02-19T05:02:35;100963.75;;;8.33;100.00
24558;BME280;12726;49.148;8.582;2023-02-19T05:05:20;100955.53;;;8.34;100.00
24558;BME280;12726;49.148;8.582;2023-02-19T05:08:06;100960.53;;;8.37;100.00
24558;BME280;12726;49.148;8.582;2023-02-19T05:10:51;100949.59;;;8.39;100.00
24558;BME280;12726;49.148;8.582;2023-02-19T05:13:41;100941.19;;;8.42;100.00
24558;BME280;12726;49.148;8.582;2023-02-19T05:16:26;100944.06;;;8.40;100.00
24558;BME280;12726;49.148;8.582;2023-02-19T05:19:13;100950.81;;;8.36;100.00
24558;BME280;12726;49.148;8.582;2023-02-19T05:21:58;100951.28;;;8.40;100.00
24558;BME280;12726;49.148;8.582;2023-02-19T05:24:43;100954.34;;;8.37;100.00
24558;BME280;12726;49.148;8.582;2023-02-19T05:27:29;100954.16;;;8.38;100.00
24558;BME280;12726;49.148;8.582;2023-02-19T05:30:15;100945.72;;;8.41;100.00
24558;BME280;12726;49.148;8.582;2023-02-19T05:33:00;100951.09;;;8.41;100.00
24558;BME280;12726;49.148;8.582;2023-02-19T05:35:48;100948.97;;;8.37;100.00
24558;BME280;12726;49.148;8.582;2023-02-19T05:38:34;100952.50;;;8.37;100.00
24558;BME280;12726;49.148;8.582;2023-02-19T05:41:22;100937.03;;;8.39;100.00
24558;BME280;12726;49.148;8.582;2023-02-19T05:44:08;100949.16;;;8.35;100.00
24558;BME280;12726;49.148;8.582;2023-02-19T05:46:54;100944.44;;;8.37;100.00
24558;BME280;12726;49.148;8.582;2023-02-19T05:49:39;100946.13;;;8.38;100.00
24558;BME280;12726;49.148;8.582;2023-02-19T05:52:26;100957.66;;;8.39;100.00
24558;BME280;12726;49.148;8.582;2023-02-19T05:55:11;100955.44;;;8.42;100.00
24558;BME280;12726;49.148;8.582;2023-02-19T05:57:57;100952.75;;;8.42;100.00
24558;BME280;12726;49.148;8.582;2023-02-19T06:00:42;100940.63;;;8.46;100.00
24558;BME280;12726;49.148;8.582;2023-02-19T06:03:27;100945.16;;;8.46;100.00
24558;BME280;12726;49.148;8.582;2023-02-19T06:06:13;100955.72;;;8.47;100.00
24558;BME280;12726;49.148;8.582;2023-02-19T06:09:00;100960.25;;;8.47;100.00
24558;BME280;12726;49.148;8.582;2023-02-19T06:11:46;100968.13;;;8.48;100.00
24558;BME280;12726;49.148;8.582;2023-02-19T06:14:31;100967.94;;;8.50;100.00
24558;BME280;12726;49.148;8.582;2023-02-19T06:17:17;100984.88;;;8.50;100.00
24558;BME280;12726;49.148;8.582;2023-02-19T06:20:02;100980.16;;;8.52;100.00
24558;BME280;12726;49.148;8.582;2023-02-19T06:22:50;100986.34;;;8.53;100.00
24558;BME280;12726;49.148;8.582;2023-02-19T06:25:37;100986.34;;;8.53;100.00
24558;BME280;12726;49.148;8.582;2023-02-19T06:28:22;100994.59;;;8.51;100.00
24558;BME280;12726;49.148;8.582;2023-02-19T06:31:08;101009.19;;;8.49;100.00
24558;BME280;12726;49.148;8.582;2023-02-19T06:33:54;101007.44;;;8.56;100.00
24558;BME280;12726;49.148;8.582;2023-02-19T06:36:39;101012.81;;;8.56;100.00
24558;BME280;12726;49.148;8.582;2023-02-19T06:39:25;101024.75;;;8.53;100.00
24558;BME280;12726;49.148;8.582;2023-02-19T06:42:11;101022.97;;;8.46;100.00
24558;BME280;12726;49.148;8.582;2023-02-19T06:44:56;101039.06;;;8.46;100.00
24558;BME280;12726;49.148;8.582;2023-02-19T06:47:42;101038.78;;;8.41;100.00
24558;BME280;12726;49.148;8.582;2023-02-19T06:50:27;101041.47;;;8.41;100.00
24558;BME280;12726;49.148;8.582;2023-02-19T06:53:12;101034.66;;;8.38;100.00
24558;BME280;12726;49.148;8.582;2023-02-19T06:55:59;101031.47;;;8.35;100.00
24558;BME280;12726;49.148;8.582;2023-02-19T06:58:46;101036.00;;;8.34;100.00
24558;BME280;12726;49.148;8.582;2023-02-19T07:01:33;101045.06;;;8.33;100.00
24558;BME280;12726;49.148;8.582;2023-02-19T07:04:18;101050.25;;;8.35;100.00
24558;BME280;12726;49.148;8.582;2023-02-19T07:07:04;101048.75;;;8.32;100.00
24558;BME280;12726;49.148;8.582;2023-02-19T07:09:49;101039.72;;;8.33;100.00
24558;BME280;12726;49.148;8.582;2023-02-19T07:12:35;101054.63;;;8.36;100.00
24558;BME280;12726;49.148;8.582;2023-02-19T07:15:21;101046.19;;;8.39;100.00
24558;BME280;12726;49.148;8.582;2023-02-19T07:18:07;101062.94;;;8.41;100.00
24558;BME280;12726;49.148;8.582;2023-02-19T07:20:53;101066.28;;;8.43;100.00
24558;BME280;12726;49.148;8.582;2023-02-19T07:23:39;101079.53;;;8.44;100.00
24558;BME280;12726;49.148;8.582;2023-02-19T07:26:24;101078.50;;;8.45;100.00
24558;BME280;12726;49.148;8.582;2023-02-19T07:29:10;101096.56;;;8.51;100.00
24558;BME280;12726;49.148;8.582;2023-02-19T07:31:56;101101.72;;;8.53;100.00
24558;BME280;12726;49.148;8.582;2023-02-19T07:34:42;101103.22;;;8.55;100.00
24558;BME280;12726;49.148;8.582;2023-02-19T07:37:27;101110.09;;;8.58;100.00
24558;BME280;12726;49.148;8.582;2023-02-19T07:40:12;101116.09;;;8.60;100.00
24558;BME280;12726;49.148;8.582;2023-02-19T07:42:58;101112.22;;;8.62;100.00
24558;BME280;12726;49.148;8.582;2023-02-19T07:45:44;101126.13;;;8.66;100.00
24558;BME280;12726;49.148;8.582;2023-02-19T07:48:30;101128.41;;;8.69;100.00
24558;BME280;12726;49.148;8.582;2023-02-19T07:51:18;101121.59;;;8.67;100.00
24558;BME280;12726;49.148;8.582;2023-02-19T07:54:04;101116.41;;;8.65;100.00
24558;BME280;12726;49.148;8.582;2023-02-19T07:56:50;101114.72;;;8.64;100.00
24558;BME280;12726;49.148;8.582;2023-02-19T07:59:36;101109.34;;;8.64;100.00
24558;BME280;12726;49.148;8.582;2023-02-19T08:02:21;101114.09;;;8.77;100.00
24558;BME280;12726;49.148;8.582;2023-02-19T08:05:26;101116.94;;;8.75;100.00
24558;BME280;12726;49.148;8.582;2023-02-19T08:08:13;101102.16;;;8.79;100.00
24558;BME280;12726;49.148;8.582;2023-02-19T08:11:00;101109.38;;;8.79;100.00
24558;BME280;12726;49.148;8.582;2023-02-19T08:14:03;101099.84;;;8.91;100.00
24558;BME280;12726;49.148;8.582;2023-02-19T08:16:48;101106.97;;;8.98;100.00
24558;BME280;12726;49.148;8.582;2023-02-19T08:19:34;101121.13;;;9.36;100.00
24558;BME280;12726;49.148;8.582;2023-02-19T08:22:20;101124.59;;;9.30;100.00
24558;BME280;12726;49.148;8.582;2023-02-19T08:25:07;101120.59;;;9.26;100.00
24558;BME280;12726;49.148;8.582;2023-02-19T08:27:52;101126.69;;;9.20;100.00
24558;BME280;12726;49.148;8.582;2023-02-19T08:30:39;101126.34;;;9.23;100.00
24558;BME280;12726;49.148;8.582;2023-02-19T08:33:25;101125.13;;;9.26;100.00
24558;BME280;12726;49.148;8.582;2023-02-19T08:36:10;101110.09;;;9.31;100.00
24558;BME280;12726;49.148;8.582;2023-02-19T08:38:56;101119.66;;;9.34;100.00
24558;BME280;12726;49.148;8.582;2023-02-19T08:41:42;101124.00;;;9.35;100.00
24558;BME280;12726;49.148;8.582;2023-02-19T08:44:27;101122.25;;;9.42;100.00
24558;BME280;12726;49.148;8.582;2023-02-19T08:47:13;101116.47;;;9.45;100.00
24558;BME280;12726;49.148;8.582;2023-02-19T08:49:58;101121.75;;;9.53;100.00
24558;BME280;12726;49.148;8.582;2023-02-19T08:52:43;101107.94;;;9.56;100.00
24558;BME280;12726;49.148;8.582;2023-02-19T08:55:30;101100.63;;;9.50;99.80
24558;BME280;12726;49.148;8.582;2023-02-19T08:58:15;101099.44;;;10.59;95.70
24558;BME280;12726;49.148;8.582;2023-02-19T09:01:00;101113.44;;;10.48;92.50
24558;BME280;12726;49.148;8.582;2023-02-19T09:03:45;101108.72;;;10.50;92.79
24558;BME280;12726;49.148;8.582;2023-02-19T09:06:31;101115.50;;;10.46;92.04
24558;BME280;12726;49.148;8.582;2023-02-19T09:09:16;101128.41;;;10.50;89.56
24558;BME280;12726;49.148;8.582;2023-02-19T09:12:04;101135.22;;;10.53;90.48
24558;BME280;12726;49.148;8.582;2023-02-19T09:14:50;101138.44;;;10.63;90.65
24558;BME280;12726;49.148;8.582;2023-02-19T09:17:35;101148.63;;;10.68;89.99
24558;BME280;12726;49.148;8.582;2023-02-19T09:20:21;101150.75;;;10.72;90.04
24558;BME280;12726;49.148;8.582;2023-02-19T09:23:06;101149.63;;;10.67;89.47
24558;BME280;12726;49.148;8.582;2023-02-19T09:25:55;101170.16;;;10.46;90.48
24558;BME280;12726;49.148;8.582;2023-02-19T09:28:42;101160.94;;;10.55;90.24
24558;BME280;12726;49.148;8.582;2023-02-19T09:31:30;101179.19;;;10.60;91.24
24558;BME280;12726;49.148;8.582;2023-02-19T09:34:17;101177.91;;;10.77;90.79
24558;BME280;12726;49.148;8.582;2023-02-19T09:37:03;101177.19;;;10.90;89.66
24558;BME280;12726;49.148;8.582;2023-02-19T09:39:48;101181.78;;;10.96;88.21
24558;BME280;12726;49.148;8.582;2023-02-19T09:42:34;101182.13;;;11.14;87.80
24558;BME280;12726;49.148;8.582;2023-02-19T09:45:23;101183.09;;;11.34;84.92
24558;BME280;12726;49.148;8.582;2023-02-19T09:48:10;101181.59;;;11.32;84.73
24558;BME280;12726;49.148;8.582;2023-02-19T09:50:56;101195.88;;;11.26;86.18
24558;BME280;12726;49.148;8.582;2023-02-19T09:53:48;101197.41;;;11.07;85.80
24558;BME280;12726;49.148;8.582;2023-02-19T09:56:34;101200.72;;;10.81;84.96
24558;BME280;12726;49.148;8.582;2023-02-19T09:59:22;101208.31;;;10.71;87.74
24558;BME280;12726;49.148;8.582;2023-02-19T10:02:13;101218.50;;;10.54;87.59
24558;BME280;12726;49.148;8.582;2023-02-19T10:04:59;101213.53;;;10.51;88.17
24558;BME280;12726;49.148;8.582;2023-02-19T10:07:47;101206.25;;;10.52;88.35
24558;BME280;12726;49.148;8.582;2023-02-19T10:10:34;101201.16;;;10.57;88.50
24558;BME280;12726;49.148;8.582;2023-02-19T10:13:22;101207.25;;;10.66;87.73
24558;BME280;12726;49.148;8.582;2023-02-19T10:16:11;101222.75;;;10.64;87.61
24558;BME280;12726;49.148;8.582;2023-02-19T10:19:00;101221.50;;;10.66;87.70
24558;BME280;12726;49.148;8.582;2023-02-19T10:21:46;101199.84;;;10.74;86.79
24558;BME280;12726;49.148;8.582;2023-02-19T10:24:31;101200.72;;;10.81;85.96
24558;BME280;12726;49.148;8.582;2023-02-19T10:27:17;101207.56;;;11.05;85.93
24558;BME280;12726;49.148;8.582;2023-02-19T10:30:03;101204.91;;;11.81;84.20
24558;BME280;12726;49.148;8.582;2023-02-19T10:33:01;101215.19;;;12.05;79.10
24558;BME280;12726;49.148;8.582;2023-02-19T10:35:54;101226.41;;;12.15;79.86
24558;BME280;12726;49.148;8.582;2023-02-19T10:38:45;101214.28;;;12.65;77.76
24558;BME280;12726;49.148;8.582;2023-02-19T10:41:31;101227.38;;;12.68;76.50
24558;BME280;12726;49.148;8.582;2023-02-19T10:44:20;101222.34;;;12.52;77.21
24558;BME280;12726;49.148;8.582;2023-02-19T10:47:06;101225.72;;;12.93;75.22
24558;BME280;12726;49.148;8.582;2023-02-19T10:49:54;101224.09;;;13.25;73.98
24558;BME280;12726;49.148;8.582;2023-02-19T10:52:42;101231.75;;;12.89;73.93
24558;BME280;12726;49.148;8.582;2023-02-19T10:55:30;101248.00;;;12.15;75.86
24558;BME280;12726;49.148;8.582;2023-02-19T10:58:22;101234.44;;;11.95;77.57
24558;BME280;12726;49.148;8.582;2023-02-19T11:01:17;101244.41;;;11.95;77.79
24558;BME280;12726;49.148;8.582;2023-02-19T11:04:14;101239.63;;;11.90;77.81
24558;BME280;12726;49.148;8.582;2023-02-19T11:07:07;101247.03;;;11.82;78.41
24558;BME280;12726;49.148;8.582;2023-02-19T11:09:54;101248.56;;;11.56;79.50
24558;BME280;12726;49.148;8.582;2023-02-19T11:12:39;101240.72;;;11.33;81.46
24558;BME280;12726;49.148;8.582;2023-02-19T11:15:27;101224.41;;;11.42;81.81
24558;BME280;12726;49.148;8.582;2023-02-19T11:18:19;101215.47;;;11.41;82.60
24558;BME280;12726;49.148;8.582;2023-02-19T11:21:07;101224.88;;;11.58;81.81
24558;BME280;12726;49.148;8.582;2023-02-19T11:24:21;101238.78;;;11.90;79.19
24558;BME280;12726;49.148;8.582;2023-02-19T11:27:17;101245.22;;;11.89;78.91
24558;BME280;12726;49.148;8.582;2023-02-19T11:30:31;101243.66;;;12.07;79.51
24558;BME280;12726;49.148;8.582;2023-02-19T11:33:23;101266.22;;;11.93;79.60
24558;BME280;12726;49.148;8.582;2023-02-19T11:36:32;101257.31;;;11.99;80.65
24558;BME280;12726;49.148;8.582;2023-02-19T11:39:20;101258.47;;;12.38;77.98
24558;BME280;12726;49.148;8.582;2023-02-19T11:42:23;101278.63;;;11.88;78.71
24558;BME280;12726;49.148;8.582;2023-02-19T11:45:17;101281.81;;;11.70;79.75
24558;BME280;12726;49.148;8.582;2023-02-19T11:48:18;101290.22;;;11.54;80.71
24558;BME280;12726;49.148;8.582;2023-02-19T11:51:25;101285.88;;;11.04;85.94
24558;BME280;12726;49.148;8.582;2023-02-19T11:54:37;101293.91;;;10.97;89.01
24558;BME280;12726;49.148;8.582;2023-02-19T11:57:37;101292.44;;;10.94;90.22
24558;BME280;12726;49.148;8.582;2023-02-19T12:00:26;101291.53;;;10.66;93.32
24558;BME280;12726;49.148;8.582;2023-02-19T12:03:20;101271.91;;;10.51;96.49
24558;BME280;12726;49.148;8.582;2023-02-19T12:06:21;101267.50;;;10.43;96.19
24558;BME280;12726;49.148;8.582;2023-02-19T12:09:18;101266.47;;;10.44;96.99
24558;BME280;12726;49.148;8.582;2023-02-19T12:12:18;101259.16;;;10.59;96.45
24558;BME280;12726;49.148;8.582;2023-02-19T12:15:26;101270.25;;;10.71;96.46
24558;BME280;12726;49.148;8.582;2023-02-19T12:18:28;101272.66;;;10.87;96.75
24558;BME280;12726;49.148;8.582;2023-02-19T12:21:27;101272.88;;;10.86;95.13
24558;BME280;12726;49.148;8.582;2023-02-19T12:27:44;101259.91;;;11.52;93.17
24558;BME280;12726;49.148;8.582;2023-02-19T12:34:28;101255.97;;;13.88;80.32
24558;BME280;12726;49.148;8.582;2023-02-19T12:37:29;101264.22;;;13.35;79.91
24558;BME280;12726;49.148;8.582;2023-02-19T12:40:37;101271.09;;;13.24;82.71
24558;BME280;12726;49.148;8.582;2023-02-19T12:43:28;101274.41;;;13.00;80.69
24558;BME280;12726;49.148;8.582;2023-02-19T12:46:19;101289.97;;;12.91;83.29
24558;BME280;12726;49.148;8.582;2023-02-19T12:49:09;101282.66;;;12.79;81.61
24558;BME280;12726;49.148;8.582;2023-02-19T12:52:00;101273.00;;;12.30;83.37
24558;BME280;12726;49.148;8.582;2023-02-19T12:54:50;101271.72;;;12.20;83.74
24558;BME280;12726;49.148;8.582;2023-02-19T12:57:37;101278.66;;;11.94;85.97
24558;BME280;12726;49.148;8.582;2023-02-19T13:00:29;101282.94;;;11.82;86.89
24558;BME280;12726;49.148;8.582;2023-02-19T13:03:17;101261.53;;;11.74;86.62
24558;BME280;12726;49.148;8.582;2023-02-19T13:06:09;101271.69;;;11.72;89.45
24558;BME280;12726;49.148;8.582;2023-02-19T13:09:02;101254.56;;;11.86;84.63
24558;BME280;12726;49.148;8.582;2023-02-19T13:11:54;101240.81;;;11.81;86.16
24558;BME280;12726;49.148;8.582;2023-02-19T13:14:41;101239.94;;;11.74;87.19
24558;BME280;12726;49.148;8.582;2023-02-19T13:17:35;101255.03;;;11.68;86.81
24558;BME280;12726;49.148;8.582;2023-02-19T13:20:24;101259.75;;;11.60;85.15
24558;BME280;12726;49.148;8.582;2023-02-19T13:23:14;101267.84;;;11.60;85.13
24558;BME280;12726;49.148;8.582;2023-02-19T13:29:53;101247.25;;;11.52;83.36
24558;BME280;12726;49.148;8.582;2023-02-19T13:32:54;101253.25;;;11.75;82.96
24558;BME280;12726;49.148;8.582;2023-02-19T13:36:04;101242.09;;;11.85;82.74
24558;BME280;12726;49.148;8.582;2023-02-19T13:38:52;101253.44;;;11.74;81.40
24558;BME280;12726;49.148;8.582;2023-02-19T13:41:48;101253.38;;;11.67;82.08
24558;BME280;12726;49.148;8.582;2023-02-19T13:44:35;101254.56;;;11.58;83.33
24558;BME280;12726;49.148;8.582;2023-02-19T13:47:46;101245.72;;;11.71;82.39
24558;BME280;12726;49.148;8.582;2023-02-19T13:50:33;101236.16;;;11.68;81.82
24558;BME280;12726;49.148;8.582;2023-02-19T13:53:56;101227.03;;;11.69;82.95
24558;BME280;12726;49.148;8.582;2023-02-19T13:56:43;101228.81;;;11.84;81.28
24558;BME280;12726;49.148;8.582;2023-02-19T13:59:35;101226.84;;;11.71;81.67
24558;BME280;12726;49.148;8.582;2023-02-19T14:02:31;101221.09;;;11.81;83.04
24558;BME280;12726;49.148;8.582;2023-02-19T14:05:58;101222.56;;;11.83;81.43
24558;BME280;12726;49.148;8.582;2023-02-19T14:08:49;101228.38;;;11.87;80.95
24558;BME280;12726;49.148;8.582;2023-02-19T14:12:01;101227.34;;;11.88;81.38
24558;BME280;12726;49.148;8.582;2023-02-19T14:14:47;101221.78;;;11.96;80.15
24558;BME280;12726;49.148;8.582;2023-02-19T14:17:37;101213.91;;;12.01;79.91
24558;BME280;12726;49.148;8.582;2023-02-19T14:20:40;101213.50;;;11.97;79.04
24558;BME280;12726;49.148;8.582;2023-02-19T14:23:28;101233.44;;;12.03;79.37
24558;BME280;12726;49.148;8.582;2023-02-19T14:26:14;101222.09;;;12.21;79.14
24558;BME280;12726;49.148;8.582;2023-02-19T14:29:00;101231.03;;;12.28;77.67
24558;BME280;12726;49.148;8.582;2023-02-19T14:31:46;101232.94;;;12.34;76.78
24558;BME280;12726;49.148;8.582;2023-02-19T14:34:32;101240.56;;;12.17;73.51
24558;BME280;12726;49.148;8.582;2023-02-19T14:37:18;101251.50;;;12.02;73.26
24558;BME280;12726;49.148;8.582;2023-02-19T14:40:09;101248.94;;;11.88;74.90
24558;BME280;12726;49.148;8.582;2023-02-19T14:43:01;101251.25;;;11.91;75.19
24558;BME280;12726;49.148;8.582;2023-02-19T14:45:51;101271.16;;;11.90;75.71
24558;BME280;12726;49.148;8.582;2023-02-19T14:48:41;101270.31;;;11.83;76.77
24558;BME280;12726;49.148;8.582;2023-02-19T14:51:30;101273.44;;;11.58;77.62
24558;BME280;12726;49.148;8.582;2023-02-19T14:54:20;101273.69;;;11.63;76.96
24558;BME280;12726;49.148;8.582;2023-02-19T14:57:14;101268.25;;;11.57;76.71
24558;BME280;12726;49.148;8.582;2023-02-19T15:00:20;101269.06;;;11.51;77.62
24558;BME280;12726;49.148;8.582;2023-02-19T15:03:23;101279.25;;;11.55;76.46